Flight Track Log - Related Links

Times and Time Zones

All times are in EDT time to prevent confusion due to time zone crossing. See the EJA947 flight status page for this flight to view local times or setup timezone preferences in your user account.

Time Position Orientation Groundspeed Altitude Reporting Facility
EDT Latitude Longitude Course Direction KTS MPH feet Rate Location/Type
Sun 12:26:39 PM 26.7347 -79.9528 55° Northeast 236 272 7,500  Level Miami Center
Sun 12:27:39 PM 26.7797 -79.9028 45° Northeast 297 342 9,900 2,000 Climbing Miami Center
Sun 12:28:39 PM 26.8483 -79.8231 46° Northeast 320 368 11,500 1,550 Climbing Miami Center
Sun 12:29:39 PM 26.9106 -79.7314 53° Northeast 349 402 13,000 1,600 Climbing Miami Center
Sun 12:30:00 PM 27.1620 -79.3141 69° East  Level FlightAware Approximate
Sun 12:30:39 PM 26.9686 -79.6442 53° Northeast 376 433 14,700  Level Miami Center
Sun 12:31:00 PM 27.2507 -79.1855 55° Northeast  Level FlightAware Approximate
Sun 12:31:39 PM 27.0397 -79.5317 55° Northeast 392 451 16,800  Level Miami Center
Sun 12:32:39 PM 27.1042 -79.4328 54° Northeast 397 457 18,500 1,800 Climbing Miami Center
Sun 12:33:39 PM 27.1708 -79.3292 54° Northeast 397 457 20,400 1,950 Climbing Miami Center
Sun 12:34:39 PM 27.2308 -79.2369 54° Northeast 397 457 22,400 2,000 Climbing Miami Center
Sun 12:35:39 PM 27.2992 -79.1308 54° Northeast 408 470 24,400 2,250 Climbing Miami Center
Sun 12:36:39 PM 27.3742 -79.0108 55° Northeast 419 482 26,900 2,000 Climbing Miami Center
Sun 12:37:39 PM 27.4447 -78.9044 53° Northeast 427 491 28,400 1,400 Climbing Miami Center
Sun 12:38:39 PM 27.5211 -78.8003 50° Northeast 427 491 29,700 1,300 Climbing Miami Center
Sun 12:39:39 PM 27.6281 -78.7694 14° North 401 461 31,000 1,250 Climbing Miami Center
Sun 12:40:39 PM 27.7475 -78.7503 North 412 474 32,200 1,000 Climbing Miami Center
Sun 12:41:39 PM 27.8731 -78.7336 North 446 513 33,000 850 Climbing Miami Center
Sun 12:42:39 PM 27.9983 -78.7119 North 446 513 33,900 1,100 Climbing Miami Center
Sun 12:43:39 PM 28.1239 -78.6928 North 451 519 35,200 1,200 Climbing Miami Center
Sun 12:44:39 PM 28.2517 -78.6761 North 464 534 36,300 1,100 Climbing Miami Center
Sun 12:45:39 PM 28.3853 -78.6547 North 469 540 37,400 1,400 Climbing Miami Center
Sun 12:46:39 PM 28.5339 -78.6333 North 481 554 39,100 1,600 Climbing Miami Center
Sun 12:47:39 PM 28.6614 -78.6142 North 481 554 40,600 950 Climbing Miami Center
Sun 12:48:39 PM 28.7931 -78.5925 North 481 554 41,000 200 Climbing Miami Center
Sun 12:49:39 PM 28.9333 -78.5711 North 486 559 41,000  Level Miami Center
Sun 12:50:39 PM 29.0753 -78.5519 North 493 567 41,000  Level Miami Center
Sun 12:51:39 PM 29.2175 -78.5325 North 499 574 41,000  Level Miami Center
Sun 12:52:39 PM 29.3575 -78.5108 North 506 582 41,000  Level Miami Center
Sun 12:53:39 PM 29.4994 -78.4892 North 506 582 41,000  Level Miami Center
Sun 12:54:45 PM 29.6406 -78.4628 North 516 594 41,000  Level Jacksonville Center
Sun 12:55:45 PM 29.7883 -78.4464 North 524 603 41,000  Level Jacksonville Center
Sun 12:56:45 PM 29.9250 -78.4186 10° North 512 589 41,000  Level Jacksonville Center
Sun 12:57:45 PM 30.0633 -78.3739 16° North 517 595 41,000  Level Jacksonville Center
Sun 12:58:45 PM 30.2181 -78.3258 15° North 500 575 41,000  Level Jacksonville Center
Sun 12:59:45 PM 30.3561 -78.2783 17° North 526 605 41,000  Level Jacksonville Center
Sun 01:00:45 PM 30.5006 -78.2328 15° North 531 611 41,000  Level Jacksonville Center
Sun 01:01:45 PM 30.6386 -78.1825 17° North 523 602 41,000  Level Jacksonville Center
Sun 01:02:45 PM 30.7894 -78.1364 15° North 533 613 41,000  Level Jacksonville Center
Sun 01:03:45 PM 30.9336 -78.0903 15° North 531 611 41,000  Level Jacksonville Center
Sun 01:04:45 PM 31.0756 -78.0322 19° North 531 611 41,000  Level Jacksonville Center
Sun 01:05:45 PM 31.2178 -77.9883 15° North 525 604 41,000  Level Jacksonville Center
Sun 01:06:45 PM 31.3600 -77.9372 17° North 530 610 41,000 -50 Level Jacksonville Center
Sun 01:07:45 PM 31.5044 -77.8978 13° North 530 610 40,900  Descending Jacksonville Center
Sun 01:08:45 PM 31.6481 -77.8339 21° North 530 610 41,000 50 Climbing Jacksonville Center
Sun 01:09:45 PM 31.7942 -77.7844 16° North 530 610 41,000 -50 Level Jacksonville Center
Sun 01:10:45 PM 31.9364 -77.7375 16° North 530 610 40,900  Descending Jacksonville Center
Sun 01:11:45 PM 32.0828 -77.6947 14° North 530 610 41,000 50 Climbing Jacksonville Center
Sun 01:12:44 PM 32.2269 -77.6450 16° North 530 610 41,000  Level Jacksonville Center
Sun 01:13:45 PM 32.3706 -77.5875 19° North 530 610 41,000  Level Jacksonville Center
Sun 01:14:45 PM 32.5167 -77.5394 15° North 530 610 41,000  Level Jacksonville Center
Sun 01:15:44 PM 32.6647 -77.4889 16° North 530 610 41,000  Level Jacksonville Center
Sun 01:16:45 PM 32.8108 -77.4381 16° North 535 616 41,000  Level Jacksonville Center
Sun 01:17:45 PM 32.9547 -77.3872 17° North 540 621 41,000 -52 Level Jacksonville Center
Sun 01:18:40 PM 33.0911 -77.3364 17° North 544 626 40,900  Descending Washington Center
Sun 01:19:40 PM 33.2211 -77.2919 16° North 550 633 41,000  Climbing Washington Center
Sun 01:20:40 PM 33.3678 -77.2403 16° North 550 633 40,900  Descending Washington Center
Sun 01:21:40 PM 33.5167 -77.1883 16° North 544 626 41,000  Climbing Washington Center
Sun 01:22:40 PM 33.6633 -77.1339 17° North 544 626 40,900  Descending Washington Center
Sun 01:23:40 PM 33.8267 -77.0769 16° North 544 626 41,000 50 Climbing Washington Center
Sun 01:24:40 PM 33.9714 -77.0244 17° North 544 626 41,000  Level Washington Center
Sun 01:25:40 PM 34.1181 -76.9692 17° North 544 626 41,000  Level Washington Center
Sun 01:26:40 PM 34.2689 -76.9164 16° North 544 626 41,000  Level Washington Center
Sun 01:27:40 PM 34.4156 -76.8608 17° North 550 633 41,000  Level Washington Center
Sun 01:28:41 PM 34.5619 -76.8103 16° North 550 633 41,000  Level Washington Center
Sun 01:29:40 PM 34.7108 -76.7544 17° North 550 633 41,000  Level Washington Center
Sun 01:30:40 PM 34.8572 -76.6981 18° North 550 633 41,000  Level Washington Center
Sun 01:31:40 PM 35.0081 -76.6444 16° North 550 633 41,000  Level Washington Center
Sun 01:32:40 PM 35.1400 -76.5953 17° North 555 639 41,000  Level Washington Center
Sun 01:33:40 PM 35.2886 -76.5386 17° North 555 639 41,000  Level Washington Center
Sun 01:34:41 PM 35.4392 -76.4817 17° North 555 639 41,000 -50 Level Washington Center
Sun 01:35:40 PM 35.5878 -76.4272 17° North 555 639 40,900  Descending Washington Center
Sun 01:36:40 PM 35.7383 -76.3700 17° North 555 639 41,000  Climbing Washington Center
Sun 01:37:40 PM 35.8867 -76.3125 17° North 555 639 40,900  Descending Washington Center
Sun 01:38:40 PM 36.0353 -76.2572 17° North 555 639 41,000 50 Climbing Washington Center
Sun 01:39:41 PM 36.1878 -76.1994 17° North 555 639 41,000  Level Washington Center
Sun 01:40:41 PM 36.3383 -76.1411 17° North 555 639 41,000 -50 Level Washington Center
Sun 01:41:40 PM 36.4867 -76.0853 17° North 555 639 40,900  Descending Washington Center
Sun 01:42:40 PM 36.6350 -76.0267 18° North 555 639 41,000 50 Climbing Washington Center
Sun 01:43:41 PM 36.7856 -75.9681 17° North 555 639 41,000  Level Washington Center
Sun 01:44:40 PM 36.9547 -75.9011 18° North 563 648 41,000  Level Washington Center
Sun 01:45:40 PM 37.0944 -75.8497 16° North 569 655 41,000  Level Washington Center
Sun 01:46:41 PM 37.2447 -75.7900 18° North 569 655 41,000  Level Washington Center
Sun 01:47:41 PM 37.3950 -75.7331 17° North 569 655 41,000 -50 Level Washington Center
Sun 01:48:40 PM 37.5475 -75.6731 17° North 564 649 40,900 -50 Descending Washington Center
Sun 01:49:40 PM 37.6997 -75.6103 18° North 564 649 40,900 50 Level Washington Center
Sun 01:50:40 PM 37.8519 -75.5497 17° North 564 649 41,000  Climbing Washington Center
Sun 01:51:40 PM 38.0042 -75.4889 17° North 564 649 40,900  Descending Washington Center
Sun 01:52:40 PM 38.1417 -75.3883 30° Northeast 564 649 41,000 50 Climbing Washington Center
Sun 01:53:40 PM 38.2664 -75.2506 41° Northeast 572 658 41,000  Level Washington Center
Sun 01:54:40 PM 38.3931 -75.1122 41° Northeast 579 666 41,000 -50 Level Washington Center
Sun 01:55:40 PM 38.5178 -74.9842 39° Northeast 579 666 40,900 -50 Descending Washington Center
Sun 01:56:40 PM 38.6419 -74.8475 41° Northeast 584 672 40,900 50 Level Washington Center
Sun 01:57:40 PM 38.7683 -74.7156 39° Northeast 584 672 41,000 34 Climbing Washington Center
Sun 01:59:39 PM 39.0175 -74.4444 40° Northeast 579 666 41,000  Level Boston Center
Sun 02:00:39 PM 39.1447 -74.3119 39° Northeast 584 672 41,000 -50 Level Boston Center
Sun 02:01:39 PM 39.2697 -74.1733 41° Northeast 584 672 40,900  Descending Boston Center
Sun 02:02:39 PM 39.3969 -74.0317 41° Northeast 590 679 41,000  Climbing Boston Center
Sun 02:03:39 PM 39.5236 -73.8950 40° Northeast 585 673 40,900  Descending Boston Center
Sun 02:04:39 PM 39.6483 -73.7547 41° Northeast 585 673 41,000 50 Climbing Boston Center
Sun 02:05:39 PM 39.7792 -73.6117 40° Northeast 590 679 41,000  Level Boston Center
Sun 02:06:39 PM 39.9075 -73.4706 40° Northeast 595 685 41,000 -300 Level Boston Center
Sun 02:07:39 PM 40.0483 -73.3236 39° Northeast 589 678 40,400 -950 Descending Boston Center
Sun 02:08:39 PM 40.1847 -73.2061 33° Northeast 589 678 39,100 -2,050 Descending Boston Center
Sun 02:09:39 PM 40.3019 -73.1014 34° Northeast 584 672 36,300 -3,500 Descending Boston Center
Sun 02:10:39 PM 40.4361 -72.9828 34° Northeast 574 661 32,100 -3,550 Descending Boston Center
Sun 02:11:39 PM 40.5700 -72.8664 33° Northeast 574 661 29,200 -2,950 Descending Boston Center
Sun 02:12:39 PM 40.7142 -72.7442 33° Northeast 568 654 26,200 -2,900 Descending Boston Center
Sun 02:13:39 PM 40.8414 -72.6375 32° Northeast 556 640 23,400 -2,850 Descending Boston Center
Sun 02:14:39 PM 40.9583 -72.5364 33° Northeast 530 610 20,500 -2,450 Descending Boston Center
Sun 02:15:39 PM 41.0583 -72.4428 35° Northeast 500 575 18,500 -1,700 Descending Boston Center
Sun 02:16:39 PM 41.1644 -72.3492 34° Northeast 477 549 17,100 -700 Descending Boston Center
Sun 02:17:39 PM 41.2811 -72.2494 33° Northeast 458 527 17,100  Level Boston Center
Sun 02:18:39 PM 41.3892 -72.1550 33° Northeast 457 526 17,100 -500 Level Boston Center
Sun 02:19:39 PM 41.4975 -72.0825 27° Northeast 457 526 16,100 -1,300 Descending Boston Center
Sun 02:20:39 PM 41.6142 -72.0736 North 426 490 14,500 -1,570 Descending Boston Center
Sun 02:21:26 PM 41.7017 -72.0703 North 402 463 13,300 -1,500 Descending Boston Center
Sun 02:22:39 PM 41.8286 -72.0611 North 382 440 11,500 -1,128 Descending Boston Center
Sun 02:23:39 PM 41.9267 -72.0467 North 364 419 10,800 -984 Descending Boston Center
Sun 02:24:41 PM 42.0014 -71.9986 26° Northeast 271 312 9,500 -1,756 Descending Boston Center
Sun 02:25:42 PM 42.0658 -71.9564 26° Northeast 266 306 7,200 -1,967 Descending Boston Center
Sun 02:26:43 PM 42.1283 -71.9083 30° Northeast 261 300 5,500 -1,082 Descending Boston Center
Sun 02:27:44 PM 42.1906 -71.8656 27° Northeast 253 291 5,000 -121 Descending Boston Center
Sun 02:30:02 PM 42.3333 -71.7667 27° Northeast 237 273 5,100 30 Climbing KA90
Sun 02:31:02 PM 42.3833 -71.7167 36° Northeast 215 247 5,100 -500 Level KA90
Sun 02:32:02 PM 42.4167 -71.6667 48° Northeast 191 220 4,100 -947 Descending KA90
Sun 02:32:56 PM 42.4500 -71.6167 48° Northeast 180 207 3,300 -526 Descending KA90
Sun 02:33:56 PM 42.4833 -71.5667 48° Northeast 192 221 3,100 -100 Descending KA90
Sun 02:34:56 PM 42.5167 -71.5167 48° Northeast 202 232 3,100  Level KA90
Sun 02:35:56 PM 42.5500 -71.4500 56° Northeast 201 231 3,100 -500 Level KA90
Sun 02:36:56 PM 42.5667 -71.3833 71° East 203 234 2,100 -476 Descending KA90
Sun 02:38:02 PM 42.5333 -71.3333 132° Southeast 192 221 2,100  Level KA90
Sun 02:39:02 PM 42.5000 -71.3667 216° Southwest 171 197 2,100  Level KA90
Sun 02:39:57 PM 42.4667 -71.3833 200° South 144 166 2,100  Level KA90

Login

Don't have an account? Register now (free) for customized features, flight alerts, and more!